createdAt,value
2022-11-20T00:00:47.213Z,2.14
2022-11-20T00:03:51.524Z,2.04
2022-11-20T00:06:54.631Z,2.13
2022-11-20T00:09:58.106Z,2.12
2022-11-20T00:13:01.230Z,2.09
2022-11-20T00:16:05.986Z,2.13
2022-11-20T00:19:08.526Z,2.09
2022-11-20T00:22:11.635Z,2.02
2022-11-20T00:25:14.794Z,2.00
2022-11-20T00:28:17.266Z,2.05
2022-11-20T00:31:20.435Z,2.01
2022-11-20T00:34:23.675Z,2.08
2022-11-20T00:37:27.226Z,2.11
2022-11-20T00:40:29.757Z,2.23
2022-11-20T00:43:33.319Z,2.33
2022-11-20T00:46:36.762Z,2.44
2022-11-20T00:49:40.227Z,2.36
2022-11-20T00:52:42.732Z,2.44
2022-11-20T00:56:04.269Z,2.43
2022-11-20T00:59:09.787Z,2.24
2022-11-20T01:02:13.157Z,2.22
2022-11-20T01:05:16.754Z,2.22
2022-11-20T01:08:19.202Z,2.21
2022-11-20T01:11:33.895Z,2.09
2022-11-20T01:14:37.333Z,2.13
2022-11-20T01:17:39.917Z,2.13
2022-11-20T01:20:43.207Z,2.21
2022-11-20T01:23:46.790Z,2.17
2022-11-20T01:26:51.578Z,2.15
2022-11-20T01:29:59.781Z,2.15
2022-11-20T01:33:04.258Z,2.11
2022-11-20T01:36:08.099Z,2.11
2022-11-20T01:39:25.725Z,2.16
2022-11-20T01:42:47.100Z,2.22
2022-11-20T01:46:16.464Z,2.18
2022-11-20T01:49:25.795Z,2.20
2022-11-20T01:52:46.277Z,2.25
2022-11-20T01:55:54.475Z,2.30
2022-11-20T01:59:02.040Z,2.22
2022-11-20T02:02:05.370Z,2.27
2022-11-20T02:05:19.389Z,2.30
2022-11-20T02:08:24.295Z,2.33
2022-11-20T02:11:26.912Z,2.22
2022-11-20T02:14:30.627Z,2.21
2022-11-20T02:17:33.083Z,2.24
2022-11-20T02:20:35.907Z,2.30
2022-11-20T02:23:45.052Z,2.52
2022-11-20T02:26:53.845Z,2.52
2022-11-20T02:30:03.644Z,2.54
2022-11-20T02:33:06.134Z,2.60
2022-11-20T02:36:15.323Z,2.51
2022-11-20T02:39:18.220Z,2.50
2022-11-20T02:42:21.830Z,2.52
2022-11-20T02:45:25.805Z,2.52
2022-11-20T02:48:32.700Z,2.54
2022-11-20T02:51:36.360Z,2.44
2022-11-20T02:54:38.890Z,2.53
2022-11-20T02:57:42.362Z,2.49
2022-11-20T03:00:45.869Z,2.41
2022-11-20T03:03:49.679Z,2.36
2022-11-20T03:06:52.873Z,2.46
2022-11-20T03:09:55.523Z,2.38
2022-11-20T03:12:58.053Z,2.37
2022-11-20T03:16:07.266Z,2.50
2022-11-20T03:19:09.908Z,2.63
2022-11-20T03:22:13.387Z,2.53
2022-11-20T03:25:17.048Z,2.60
2022-11-20T03:28:19.602Z,2.34
2022-11-20T03:31:28.785Z,2.62
2022-11-20T03:34:31.874Z,2.63
2022-11-20T03:37:34.960Z,2.72
2022-11-20T03:40:38.463Z,2.63
2022-11-20T03:43:42.035Z,2.61
2022-11-20T03:46:45.329Z,2.59
2022-11-20T03:49:48.457Z,2.56
2022-11-20T03:52:50.979Z,2.64
2022-11-20T03:55:56.538Z,2.51
2022-11-20T03:58:59.940Z,2.59
2022-11-20T04:02:02.495Z,2.67
2022-11-20T04:05:06.369Z,2.64
2022-11-20T04:08:09.452Z,2.56
2022-11-20T04:11:19.418Z,2.52
2022-11-20T04:14:21.959Z,2.42
2022-11-20T04:17:24.495Z,2.40
2022-11-20T04:20:28.006Z,2.50
2022-11-20T04:23:31.601Z,2.55
2022-11-20T04:26:34.785Z,2.47
2022-11-20T04:29:37.338Z,2.52
2022-11-20T04:32:39.823Z,2.58
2022-11-20T04:35:43.815Z,2.54
2022-11-20T04:38:51.370Z,2.56
2022-11-20T04:42:15.907Z,2.59
2022-11-20T04:45:18.396Z,2.60
2022-11-20T04:48:21.960Z,2.64
2022-11-20T04:51:25.049Z,2.70
2022-11-20T04:54:31.809Z,2.73
2022-11-20T04:57:34.953Z,2.73
2022-11-20T05:00:38.077Z,2.76
2022-11-20T05:03:42.913Z,2.72
2022-11-20T05:06:46.609Z,2.59
2022-11-20T05:09:49.051Z,2.62
2022-11-20T05:12:51.565Z,2.38
2022-11-20T05:15:54.217Z,2.55
2022-11-20T05:18:57.152Z,2.61
2022-11-20T05:21:59.665Z,2.67
2022-11-20T05:25:02.115Z,2.63
2022-11-20T05:28:04.678Z,2.57
2022-11-20T05:31:25.011Z,2.54
2022-11-20T05:34:28.533Z,2.46
2022-11-20T05:37:31.117Z,2.50
2022-11-20T05:40:33.760Z,2.57
2022-11-20T05:43:37.517Z,2.58
2022-11-20T05:46:40.558Z,2.64
2022-11-20T05:49:43.207Z,2.63
2022-11-20T05:52:45.889Z,2.67
2022-11-20T05:55:57.530Z,2.68
2022-11-20T05:59:00.556Z,2.71
2022-11-20T06:02:04.103Z,2.81
2022-11-20T06:05:08.064Z,2.79
2022-11-20T06:08:10.616Z,2.83
2022-11-20T06:11:15.509Z,2.71
2022-11-20T06:14:18.011Z,2.70
2022-11-20T06:17:21.055Z,2.60
2022-11-20T06:20:25.617Z,2.58
2022-11-20T06:23:30.013Z,2.69
2022-11-20T06:26:33.128Z,2.67
2022-11-20T06:29:35.868Z,2.64
2022-11-20T06:32:38.508Z,2.55
2022-11-20T06:35:41.574Z,2.60
2022-11-20T06:38:45.382Z,2.54
2022-11-20T06:41:47.920Z,2.71
2022-11-20T06:44:50.387Z,2.61
2022-11-20T06:47:53.980Z,2.64
2022-11-20T06:50:58.173Z,2.83
2022-11-20T06:54:02.036Z,2.70
2022-11-20T06:57:04.721Z,2.86
2022-11-20T07:00:08.682Z,2.98
2022-11-20T07:03:16.269Z,3.00
2022-11-20T07:06:18.800Z,2.98
2022-11-20T07:09:22.388Z,3.00
2022-11-20T07:12:25.045Z,3.09
2022-11-20T07:15:28.034Z,3.23
2022-11-20T07:18:30.563Z,3.36
2022-11-20T07:21:33.056Z,3.32
2022-11-20T07:24:36.198Z,3.17
2022-11-20T07:27:38.724Z,2.96
2022-11-20T07:30:42.220Z,3.18
2022-11-20T07:33:44.698Z,3.13
2022-11-20T07:36:47.672Z,3.25
2022-11-20T07:39:51.177Z,3.29
2022-11-20T07:42:55.418Z,3.30
2022-11-20T07:45:59.925Z,3.35
2022-11-20T07:49:02.589Z,3.42
2022-11-20T07:52:05.550Z,3.57
2022-11-20T07:55:09.033Z,3.66
2022-11-20T07:58:11.547Z,3.57
2022-11-20T08:01:14.150Z,3.69
2022-11-20T08:04:17.324Z,3.74
2022-11-20T08:07:19.919Z,3.87
2022-11-20T08:10:22.525Z,3.96
2022-11-20T08:13:43.188Z,4.04
2022-11-20T08:16:47.771Z,4.05
2022-11-20T08:19:51.258Z,4.18
2022-11-20T08:22:58.871Z,4.45
2022-11-20T08:26:01.338Z,4.60
2022-11-20T08:29:05.612Z,4.40
2022-11-20T08:32:09.295Z,4.53
2022-11-20T08:35:11.851Z,4.59
2022-11-20T08:38:14.284Z,4.73
2022-11-20T08:41:29.519Z,4.91
2022-11-20T08:44:32.752Z,5.14
2022-11-20T08:47:35.264Z,4.90
2022-11-20T08:50:38.276Z,4.77
2022-11-20T08:53:41.377Z,4.81
2022-11-20T08:56:44.766Z,4.82
2022-11-20T09:03:09.889Z,4.72
2022-11-20T09:06:13.055Z,4.64
2022-11-20T09:09:16.342Z,4.52
2022-11-20T09:12:18.816Z,4.46
2022-11-20T09:15:21.726Z,4.39
2022-11-20T09:18:25.946Z,4.35
2022-11-20T09:21:28.502Z,4.23
2022-11-20T09:24:31.055Z,4.24
2022-11-20T09:27:34.278Z,4.33
2022-11-20T09:30:36.980Z,4.45
2022-11-20T09:33:40.377Z,4.56
2022-11-20T09:36:42.770Z,4.67
2022-11-20T09:39:45.233Z,4.82
2022-11-20T09:43:10.073Z,4.89
2022-11-20T09:46:22.189Z,5.05
2022-11-20T09:49:44.957Z,4.94
2022-11-20T09:53:16.078Z,4.98
2022-11-20T09:56:22.838Z,5.07
2022-11-20T09:59:37.469Z,5.08
2022-11-20T10:03:02.392Z,5.14
2022-11-20T10:06:09.615Z,4.99
2022-11-20T10:09:12.815Z,4.91
2022-11-20T10:12:34.703Z,5.16
2022-11-20T10:15:42.901Z,5.28
2022-11-20T10:18:54.464Z,5.36
2022-11-20T10:21:57.851Z,5.53
2022-11-20T10:25:03.244Z,5.74
2022-11-20T10:28:36.853Z,5.73
2022-11-20T10:31:43.244Z,5.65
2022-11-20T10:35:02.396Z,5.75
2022-11-20T10:38:13.920Z,5.79
2022-11-20T10:41:28.655Z,5.84
2022-11-20T10:44:56.749Z,6.01
2022-11-20T10:48:13.929Z,6.01
2022-11-20T10:51:31.531Z,6.04
2022-11-20T10:54:46.855Z,6.11
2022-11-20T10:58:10.224Z,6.12
2022-11-20T11:01:18.551Z,6.06
2022-11-20T11:04:45.410Z,6.04
2022-11-20T11:07:55.278Z,6.22
2022-11-20T11:11:02.682Z,6.26
2022-11-20T11:14:11.908Z,6.19
2022-11-20T11:17:29.767Z,6.31
2022-11-20T11:20:52.091Z,6.39
2022-11-20T11:24:26.854Z,6.33
2022-11-20T11:27:28.658Z,6.34
2022-11-20T11:30:44.207Z,6.56
2022-11-20T11:33:47.498Z,6.66
2022-11-20T11:36:58.214Z,6.52
2022-11-20T11:40:22.812Z,6.40
2022-11-20T11:43:49.747Z,6.65
2022-11-20T11:46:57.292Z,6.63
2022-11-20T11:50:09.308Z,6.35
2022-11-20T11:53:18.769Z,6.19
2022-11-20T11:56:22.414Z,6.04
2022-11-20T11:59:35.393Z,5.88
2022-11-20T12:02:49.425Z,5.77
2022-11-20T12:06:00.559Z,5.95
2022-11-20T12:09:07.299Z,5.78
2022-11-20T12:12:18.203Z,5.96
2022-11-20T12:15:29.876Z,6.07
2022-11-20T12:18:32.944Z,6.00
2022-11-20T12:21:53.655Z,5.95
2022-11-20T12:25:15.639Z,6.05
2022-11-20T12:28:26.989Z,5.93
2022-11-20T12:31:41.672Z,6.10
2022-11-20T12:34:54.128Z,6.17
2022-11-20T12:38:29.763Z,6.08
2022-11-20T12:42:05.909Z,5.87
2022-11-20T12:45:53.497Z,5.98
2022-11-20T12:49:06.383Z,5.91
2022-11-20T12:52:27.344Z,6.02
2022-11-20T12:55:34.713Z,5.82
2022-11-20T12:59:01.804Z,6.00
2022-11-20T13:02:23.426Z,6.05
2022-11-20T13:05:38.856Z,6.09
2022-11-20T13:08:48.545Z,6.07
2022-11-20T13:12:07.545Z,6.07
2022-11-20T13:15:31.106Z,6.16
2022-11-20T13:18:40.566Z,6.34
2022-11-20T13:21:47.374Z,6.37
2022-11-20T13:24:52.867Z,6.34
2022-11-20T13:27:58.455Z,6.43
2022-11-20T13:31:01.160Z,6.43
2022-11-20T13:34:07.382Z,6.15
2022-11-20T13:37:27.684Z,6.20
2022-11-20T13:40:30.272Z,6.05
2022-11-20T13:43:36.479Z,6.01
2022-11-20T13:46:45.602Z,6.10
2022-11-20T13:49:49.684Z,6.15
2022-11-20T13:53:24.482Z,6.20
2022-11-20T13:56:54.048Z,6.08
2022-11-20T14:00:24.304Z,6.20
2022-11-20T14:04:04.642Z,6.11
2022-11-20T14:06:55.477Z,6.04
2022-11-20T14:09:58.939Z,5.98
2022-11-20T14:13:12.017Z,5.78
2022-11-20T14:16:21.580Z,5.88
2022-11-20T14:19:31.437Z,5.91
2022-11-20T14:22:34.028Z,5.84
2022-11-20T14:25:36.695Z,5.80
2022-11-20T14:28:41.103Z,5.80
2022-11-20T14:31:47.880Z,5.80
2022-11-20T14:34:55.608Z,5.65
2022-11-20T14:37:59.441Z,5.71
2022-11-20T14:41:10.009Z,5.75
2022-11-20T14:44:13.300Z,5.70
2022-11-20T14:47:20.311Z,5.63
2022-11-20T14:50:29.796Z,5.54
2022-11-20T14:53:32.629Z,5.56
2022-11-20T14:56:35.818Z,5.48
2022-11-20T14:59:38.302Z,5.52
2022-11-20T15:02:46.094Z,5.42
2022-11-20T15:05:50.871Z,5.37
2022-11-20T15:08:56.824Z,5.27
2022-11-20T15:12:02.703Z,5.37
2022-11-20T15:15:07.133Z,5.28
2022-11-20T15:18:19.548Z,5.22
2022-11-20T15:21:22.658Z,5.23
2022-11-20T15:24:25.476Z,5.11
2022-11-20T15:27:29.133Z,5.17
2022-11-20T15:30:32.988Z,5.10
2022-11-20T15:33:35.540Z,5.05
2022-11-20T15:36:39.452Z,5.09
2022-11-20T15:39:42.795Z,5.08
2022-11-20T15:43:06.768Z,5.02
2022-11-20T15:46:14.016Z,5.08
2022-11-20T15:49:19.669Z,5.05
2022-11-20T15:52:23.126Z,4.97
2022-11-20T15:55:27.288Z,4.95
2022-11-20T15:58:30.399Z,4.87
2022-11-20T16:01:33.082Z,4.94
2022-11-20T16:04:35.680Z,4.90
2022-11-20T16:07:38.253Z,4.90
2022-11-20T16:10:41.565Z,4.85
2022-11-20T16:14:03.370Z,4.86
2022-11-20T16:17:05.995Z,4.82
2022-11-20T16:20:15.177Z,4.86
2022-11-20T16:23:19.166Z,4.88
2022-11-20T16:26:22.470Z,4.90
2022-11-20T16:29:25.000Z,4.94
2022-11-20T16:32:28.373Z,4.99
2022-11-20T16:35:32.082Z,4.87
2022-11-20T16:38:35.388Z,4.86
2022-11-20T16:41:38.318Z,4.89
2022-11-20T16:44:40.847Z,4.86
2022-11-20T16:47:43.391Z,4.85
2022-11-20T16:50:51.845Z,4.78
2022-11-20T16:53:55.988Z,4.81
2022-11-20T16:56:59.356Z,4.78
2022-11-20T17:00:04.015Z,4.67
2022-11-20T17:03:07.775Z,4.67
2022-11-20T17:06:17.523Z,4.59
2022-11-20T17:09:20.993Z,4.59
2022-11-20T17:12:23.467Z,4.52
2022-11-20T17:15:26.937Z,4.44
2022-11-20T17:18:29.937Z,4.41
2022-11-20T17:21:33.685Z,4.44
2022-11-20T17:24:37.059Z,4.45
2022-11-20T17:27:40.498Z,4.45
2022-11-20T17:30:43.890Z,4.36
2022-11-20T17:33:46.976Z,4.32
2022-11-20T17:36:50.454Z,4.34
2022-11-20T17:39:53.055Z,4.35
2022-11-20T17:42:56.493Z,4.38
2022-11-20T17:46:00.009Z,4.41
2022-11-20T17:49:03.903Z,4.39
2022-11-20T17:52:06.982Z,4.37
2022-11-20T17:55:10.474Z,4.27
2022-11-20T17:58:13.516Z,4.18
2022-11-20T18:01:17.704Z,4.17
2022-11-20T18:04:21.321Z,4.17
2022-11-20T18:07:25.112Z,4.15
2022-11-20T18:10:30.430Z,4.11
2022-11-20T18:13:52.923Z,4.08
2022-11-20T18:16:58.090Z,3.95
2022-11-20T18:20:27.235Z,3.91
2022-11-20T18:23:24.006Z,3.90
2022-11-20T18:26:27.562Z,3.81
2022-11-20T18:29:31.254Z,3.77
2022-11-20T18:32:37.015Z,3.74
2022-11-20T18:35:42.985Z,3.71
2022-11-20T18:38:49.419Z,3.73
2022-11-20T18:42:11.632Z,3.71
2022-11-20T18:45:14.122Z,3.72
2022-11-20T18:48:17.616Z,3.66
2022-11-20T18:51:21.098Z,3.70
2022-11-20T18:54:24.055Z,3.64
2022-11-20T18:57:29.384Z,3.58
2022-11-20T19:00:32.547Z,3.53
2022-11-20T19:03:35.155Z,3.38
2022-11-20T19:06:39.631Z,3.27
2022-11-20T19:09:44.974Z,3.20
2022-11-20T19:12:48.096Z,3.16
2022-11-20T19:15:50.653Z,3.16
2022-11-20T19:18:53.429Z,3.04
2022-11-20T19:21:58.970Z,3.06
2022-11-20T19:25:02.078Z,3.09
2022-11-20T19:28:05.690Z,3.11
2022-11-20T19:31:12.333Z,3.05
2022-11-20T19:34:15.253Z,3.00
2022-11-20T19:37:17.737Z,2.98
2022-11-20T19:40:21.147Z,2.83
2022-11-20T19:43:23.803Z,2.83
2022-11-20T19:46:27.403Z,2.92
2022-11-20T19:49:30.646Z,3.01
2022-11-20T19:52:34.090Z,3.02
2022-11-20T19:55:37.634Z,3.12
2022-11-20T19:58:41.170Z,3.12
2022-11-20T20:01:43.811Z,3.00
2022-11-20T20:04:47.019Z,2.95
2022-11-20T20:07:49.837Z,2.85
2022-11-20T20:10:56.749Z,2.77
2022-11-20T20:14:14.550Z,2.78
2022-11-20T20:17:17.131Z,2.84
2022-11-20T20:20:21.322Z,2.81
2022-11-20T20:23:24.027Z,2.84
2022-11-20T20:26:29.613Z,2.80
2022-11-20T20:29:32.711Z,2.80
2022-11-20T20:32:36.250Z,2.77
2022-11-20T20:35:43.390Z,2.71
2022-11-20T20:38:46.639Z,2.63
2022-11-20T20:41:51.549Z,2.62
2022-11-20T20:45:06.376Z,2.61
2022-11-20T20:48:08.843Z,2.65
2022-11-20T20:51:11.347Z,2.61
2022-11-20T20:54:13.834Z,2.64
2022-11-20T20:57:17.363Z,2.65
2022-11-20T21:00:19.942Z,2.69
2022-11-20T21:03:22.466Z,2.72
2022-11-20T21:06:25.915Z,2.77
2022-11-20T21:09:28.475Z,2.77
2022-11-20T21:12:30.869Z,2.78
2022-11-20T21:15:33.367Z,2.86
2022-11-20T21:18:36.880Z,2.90
2022-11-20T21:21:58.575Z,2.92
2022-11-20T21:25:01.027Z,2.84
2022-11-20T21:28:04.262Z,2.82
2022-11-20T21:31:13.284Z,2.84
2022-11-20T21:34:19.254Z,2.88
2022-11-20T21:37:21.800Z,2.90
2022-11-20T21:40:24.756Z,2.91
2022-11-20T21:43:28.396Z,2.89
2022-11-20T21:46:32.063Z,2.91
2022-11-20T21:49:35.272Z,2.84
2022-11-20T21:52:37.869Z,2.88
2022-11-20T21:55:40.314Z,2.88
2022-11-20T21:58:44.695Z,2.83
2022-11-20T22:01:47.870Z,2.77
2022-11-20T22:04:51.344Z,2.68
2022-11-20T22:07:56.814Z,2.69
2022-11-20T22:11:02.119Z,2.60
2022-11-20T22:14:23.327Z,2.61
2022-11-20T22:17:45.678Z,2.63
2022-11-20T22:20:48.797Z,2.66
2022-11-20T22:23:52.762Z,2.64
2022-11-20T22:26:55.924Z,2.55
2022-11-20T22:29:58.402Z,2.35
2022-11-20T22:33:00.847Z,2.34
2022-11-20T22:36:17.861Z,2.38
2022-11-20T22:39:23.181Z,2.35
2022-11-20T22:42:35.013Z,2.42
2022-11-20T22:45:38.482Z,2.33
2022-11-20T22:48:43.296Z,2.32
2022-11-20T22:51:46.901Z,2.31
2022-11-20T22:54:49.481Z,2.35
2022-11-20T22:57:51.875Z,2.27
2022-11-20T23:00:54.530Z,2.31
2022-11-20T23:03:59.635Z,2.28
2022-11-20T23:07:02.211Z,2.31
2022-11-20T23:10:06.634Z,2.21
2022-11-20T23:13:09.132Z,2.15
2022-11-20T23:16:16.818Z,2.11
2022-11-20T23:19:20.410Z,2.14
2022-11-20T23:22:22.946Z,2.15
2022-11-20T23:25:25.464Z,2.20
2022-11-20T23:28:29.380Z,2.05
2022-11-20T23:31:34.145Z,1.94
2022-11-20T23:34:37.421Z,1.81
2022-11-20T23:37:41.429Z,1.68
2022-11-20T23:40:48.543Z,1.73
2022-11-20T23:43:53.408Z,1.78
2022-11-20T23:46:56.432Z,1.77
2022-11-20T23:49:59.901Z,1.93
2022-11-20T23:53:02.391Z,1.90
2022-11-20T23:56:05.898Z,1.87
2022-11-20T23:59:08.422Z,1.71
